sensor_id;sensor_type;location;lat;lon;timestamp;pressure;altitude;pressure_sealevel;temperature;humidity
74370;BME280;62805;44.644;10.942;2023-04-03T00:01:34;100893.00;;;9.26;75.68
74370;BME280;62805;44.644;10.942;2023-04-03T00:04:00;100878.94;;;9.21;76.63
74370;BME280;62805;44.644;10.942;2023-04-03T00:06:26;100866.56;;;9.17;76.60
74370;BME280;62805;44.644;10.942;2023-04-03T00:08:51;100874.50;;;9.25;76.57
74370;BME280;62805;44.644;10.942;2023-04-03T00:11:17;100871.13;;;9.23;76.71
74370;BME280;62805;44.644;10.942;2023-04-03T00:13:43;100876.97;;;9.17;76.69
74370;BME280;62805;44.644;10.942;2023-04-03T00:16:10;100872.75;;;9.19;76.83
74370;BME280;62805;44.644;10.942;2023-04-03T00:18:36;100868.19;;;9.08;77.46
74370;BME280;62805;44.644;10.942;2023-04-03T00:21:02;100874.50;;;9.25;76.99
74370;BME280;62805;44.644;10.942;2023-04-03T00:23:28;100880.00;;;9.15;76.18
74370;BME280;62805;44.644;10.942;2023-04-03T00:25:53;100864.72;;;8.96;77.31
74370;BME280;62805;44.644;10.942;2023-04-03T00:28:19;100872.66;;;9.04;76.19
74370;BME280;62805;44.644;10.942;2023-04-03T00:30:45;100868.69;;;9.00;75.77
74370;BME280;62805;44.644;10.942;2023-04-03T00:33:12;100868.72;;;9.05;74.66
74370;BME280;62805;44.644;10.942;2023-04-03T00:35:38;100867.13;;;9.14;76.43
74370;BME280;62805;44.644;10.942;2023-04-03T00:38:03;100869.97;;;9.19;76.41
74370;BME280;62805;44.644;10.942;2023-04-03T00:40:36;100872.19;;;9.17;74.91
74370;BME280;62805;44.644;10.942;2023-04-03T00:43:10;100872.75;;;9.19;74.29
74370;BME280;62805;44.644;10.942;2023-04-03T00:45:39;100872.03;;;9.34;74.70
74370;BME280;62805;44.644;10.942;2023-04-03T00:48:08;100876.34;;;9.46;76.19
74370;BME280;62805;44.644;10.942;2023-04-03T00:50:37;100866.22;;;9.45;76.57
74370;BME280;62805;44.644;10.942;2023-04-03T00:53:05;100866.22;;;9.45;76.01
74370;BME280;62805;44.644;10.942;2023-04-03T00:55:31;100868.47;;;9.48;75.86
74370;BME280;62805;44.644;10.942;2023-04-03T00:57:57;100866.81;;;9.47;75.60
74370;BME280;62805;44.644;10.942;2023-04-03T01:00:25;100866.41;;;9.29;76.49
74370;BME280;62805;44.644;10.942;2023-04-03T01:02:51;100866.16;;;9.35;76.66
74370;BME280;62805;44.644;10.942;2023-04-03T01:05:18;100867.44;;;9.18;77.42
74370;BME280;62805;44.644;10.942;2023-04-03T01:07:44;100855.34;;;9.17;73.86
74370;BME280;62805;44.644;10.942;2023-04-03T01:10:12;100857.06;;;9.18;76.04
74370;BME280;62805;44.644;10.942;2023-04-03T01:12:41;100850.53;;;9.08;74.30
74370;BME280;62805;44.644;10.942;2023-04-03T01:17:41;100854.53;;;9.17;75.86
74370;BME280;62805;44.644;10.942;2023-04-03T01:25:51;100861.44;;;9.41;75.92
74370;BME280;62805;44.644;10.942;2023-04-03T01:28:21;100855.34;;;9.54;75.05
74370;BME280;62805;44.644;10.942;2023-04-03T01:33:34;100858.38;;;9.47;76.24
74370;BME280;62805;44.644;10.942;2023-04-03T01:36:00;100849.03;;;9.32;75.61
74370;BME280;62805;44.644;10.942;2023-04-03T01:38:25;100843.75;;;9.40;76.28
74370;BME280;62805;44.644;10.942;2023-04-03T01:40:51;100843.13;;;9.33;74.18
74370;BME280;62805;44.644;10.942;2023-04-03T01:43:16;100841.47;;;9.32;73.93
74370;BME280;62805;44.644;10.942;2023-04-03T01:45:42;100854.94;;;9.35;73.09
74370;BME280;62805;44.644;10.942;2023-04-03T01:48:07;100844.34;;;9.47;71.39
74370;BME280;62805;44.644;10.942;2023-04-03T01:50:33;100827.56;;;9.52;71.61
74370;BME280;62805;44.644;10.942;2023-04-03T01:52:58;100838.69;;;9.37;72.33
74370;BME280;62805;44.644;10.942;2023-04-03T01:55:23;100832.53;;;9.40;72.05
74370;BME280;62805;44.644;10.942;2023-04-03T01:57:49;100832.81;;;9.39;72.30
74370;BME280;62805;44.644;10.942;2023-04-03T02:00:14;100837.28;;;9.40;72.64
74370;BME280;62805;44.644;10.942;2023-04-03T02:02:40;100833.66;;;9.39;72.20
74370;BME280;62805;44.644;10.942;2023-04-03T02:05:06;100833.69;;;9.44;72.04
74370;BME280;62805;44.644;10.942;2023-04-03T02:07:31;100835.00;;;9.32;72.27
74370;BME280;62805;44.644;10.942;2023-04-03T02:09:56;100839.50;;;9.38;72.38
74370;BME280;62805;44.644;10.942;2023-04-03T02:12:22;100847.06;;;9.32;72.90
74370;BME280;62805;44.644;10.942;2023-04-03T02:14:47;100852.75;;;9.42;72.96
74370;BME280;62805;44.644;10.942;2023-04-03T02:17:12;100852.75;;;9.42;73.00
74370;BME280;62805;44.644;10.942;2023-04-03T02:19:38;100845.44;;;9.41;72.15
74370;BME280;62805;44.644;10.942;2023-04-03T02:22:04;100841.53;;;9.42;73.49
74370;BME280;62805;44.644;10.942;2023-04-03T02:24:29;100841.47;;;9.32;73.67
74370;BME280;62805;44.644;10.942;2023-04-03T02:26:55;100848.75;;;9.33;73.25
74370;BME280;62805;44.644;10.942;2023-04-03T02:29:20;100851.31;;;9.40;73.88
74370;BME280;62805;44.644;10.942;2023-04-03T02:31:46;100845.38;;;9.31;73.91
74370;BME280;62805;44.644;10.942;2023-04-03T02:34:11;100850.44;;;9.34;74.03
74370;BME280;62805;44.644;10.942;2023-04-03T02:36:37;100862.53;;;9.40;74.38
74370;BME280;62805;44.644;10.942;2023-04-03T02:39:03;100844.78;;;9.29;74.40
74370;BME280;62805;44.644;10.942;2023-04-03T02:41:28;100848.38;;;9.20;75.21
74370;BME280;62805;44.644;10.942;2023-04-03T02:44:01;100836.31;;;9.19;73.83
74370;BME280;62805;44.644;10.942;2023-04-03T02:46:26;100845.84;;;9.18;74.05
74370;BME280;62805;44.644;10.942;2023-04-03T02:48:52;100846.38;;;9.15;74.04
74370;BME280;62805;44.644;10.942;2023-04-03T02:51:17;100834.09;;;9.21;74.57
74370;BME280;62805;44.644;10.942;2023-04-03T02:53:43;100841.38;;;9.22;73.57
74370;BME280;62805;44.644;10.942;2023-04-03T02:56:08;100848.81;;;9.43;72.64
74370;BME280;62805;44.644;10.942;2023-04-03T02:58:34;100849.91;;;9.37;73.38
74370;BME280;62805;44.644;10.942;2023-04-03T03:00:59;100845.38;;;9.31;74.04
74370;BME280;62805;44.644;10.942;2023-04-03T03:03:25;100849.31;;;9.35;73.17
74370;BME280;62805;44.644;10.942;2023-04-03T03:05:50;100842.22;;;9.23;72.39
74370;BME280;62805;44.644;10.942;2023-04-03T03:08:25;100840.84;;;9.25;72.67
74370;BME280;62805;44.644;10.942;2023-04-03T03:10:50;100844.72;;;9.19;73.16
74370;BME280;62805;44.644;10.942;2023-04-03T03:13:16;100838.66;;;9.32;72.81
74370;BME280;62805;44.644;10.942;2023-04-03T03:15:41;100852.06;;;9.25;72.27
74370;BME280;62805;44.644;10.942;2023-04-03T03:18:06;100841.97;;;9.29;72.32
74370;BME280;62805;44.644;10.942;2023-04-03T03:20:32;100841.38;;;9.22;72.93
74370;BME280;62805;44.644;10.942;2023-04-03T03:22:57;100840.84;;;9.25;72.96
74370;BME280;62805;44.644;10.942;2023-04-03T03:25:22;100841.31;;;9.12;73.31
74370;BME280;62805;44.644;10.942;2023-04-03T03:27:48;100839.72;;;9.26;74.05
74370;BME280;62805;44.644;10.942;2023-04-03T03:30:13;100840.50;;;9.17;74.37
74370;BME280;62805;44.644;10.942;2023-04-03T03:32:39;100836.25;;;9.09;74.39
74370;BME280;62805;44.644;10.942;2023-04-03T03:35:04;100823.59;;;9.07;74.97
74370;BME280;62805;44.644;10.942;2023-04-03T03:37:30;100818.81;;;9.02;75.08
74370;BME280;62805;44.644;10.942;2023-04-03T03:39:55;100824.50;;;9.17;74.68
74370;BME280;62805;44.644;10.942;2023-04-03T03:42:21;100809.91;;;9.15;75.55
74370;BME280;62805;44.644;10.942;2023-04-03T03:44:47;100826.63;;;9.00;74.71
74370;BME280;62805;44.644;10.942;2023-04-03T03:47:12;100823.91;;;8.78;75.97
74370;BME280;62805;44.644;10.942;2023-04-03T03:49:37;100820.84;;;8.80;75.90
74370;BME280;62805;44.644;10.942;2023-04-03T03:52:03;100827.63;;;8.84;75.75
74370;BME280;62805;44.644;10.942;2023-04-03T03:54:28;100819.72;;;8.76;75.83
74370;BME280;62805;44.644;10.942;2023-04-03T03:56:54;100819.72;;;8.76;76.23
74370;BME280;62805;44.644;10.942;2023-04-03T03:59:19;100821.44;;;8.82;75.84
74370;BME280;62805;44.644;10.942;2023-04-03T04:01:45;100830.38;;;8.79;75.83
74370;BME280;62805;44.644;10.942;2023-04-03T04:04:10;100817.91;;;8.65;76.65
74370;BME280;62805;44.644;10.942;2023-04-03T04:06:35;100831.00;;;8.86;75.60
74370;BME280;62805;44.644;10.942;2023-04-03T04:09:01;100832.06;;;8.80;77.05
74370;BME280;62805;44.644;10.942;2023-04-03T04:11:26;100840.00;;;8.88;75.48
74370;BME280;62805;44.644;10.942;2023-04-03T04:13:52;100831.53;;;8.83;75.93
74370;BME280;62805;44.644;10.942;2023-04-03T04:16:18;100833.44;;;8.77;75.91
74370;BME280;62805;44.644;10.942;2023-04-03T04:18:43;100830.69;;;8.82;77.09
74370;BME280;62805;44.644;10.942;2023-04-03T04:21:08;100839.91;;;8.78;77.33
74370;BME280;62805;44.644;10.942;2023-04-03T04:23:34;100839.38;;;8.81;76.38
74370;BME280;62805;44.644;10.942;2023-04-03T04:25:59;100850.66;;;8.91;76.51
74370;BME280;62805;44.644;10.942;2023-04-03T04:28:25;100842.28;;;8.96;76.54
74370;BME280;62805;44.644;10.942;2023-04-03T04:30:50;100844.81;;;8.97;76.68
74370;BME280;62805;44.644;10.942;2023-04-03T04:33:15;100847.81;;;8.86;76.79
74370;BME280;62805;44.644;10.942;2023-04-03T04:35:42;100847.56;;;8.61;77.12
74370;BME280;62805;44.644;10.942;2023-04-03T04:38:08;100851.44;;;8.55;77.97
74370;BME280;62805;44.644;10.942;2023-04-03T04:40:34;100842.47;;;8.53;77.70
74370;BME280;62805;44.644;10.942;2023-04-03T04:42:59;100840.34;;;8.65;78.57
74370;BME280;62805;44.644;10.942;2023-04-03T04:45:25;100839.38;;;8.54;78.50
74370;BME280;62805;44.644;10.942;2023-04-03T04:47:50;100840.34;;;8.65;78.36
74370;BME280;62805;44.644;10.942;2023-04-03T04:50:17;100848.28;;;8.73;78.04
74370;BME280;62805;44.644;10.942;2023-04-03T04:52:42;100841.84;;;8.77;78.62
74370;BME280;62805;44.644;10.942;2023-04-03T04:55:08;100844.31;;;8.69;78.97
74370;BME280;62805;44.644;10.942;2023-04-03T04:57:33;100850.28;;;8.51;78.97
74370;BME280;62805;44.644;10.942;2023-04-03T04:59:59;100844.47;;;8.31;79.40
74370;BME280;62805;44.644;10.942;2023-04-03T05:02:25;100843.00;;;8.50;79.82
74370;BME280;62805;44.644;10.942;2023-04-03T05:04:50;100855.28;;;8.49;79.77
74370;BME280;62805;44.644;10.942;2023-04-03T05:07:17;100861.13;;;8.42;80.31
74370;BME280;62805;44.644;10.942;2023-04-03T05:09:42;100862.56;;;8.45;80.15
74370;BME280;62805;44.644;10.942;2023-04-03T05:12:07;100864.13;;;8.36;80.41
74370;BME280;62805;44.644;10.942;2023-04-03T05:14:33;100864.63;;;8.33;80.71
74370;BME280;62805;44.644;10.942;2023-04-03T05:16:58;100864.00;;;8.26;81.06
74370;BME280;62805;44.644;10.942;2023-04-03T05:19:24;100866.59;;;8.11;82.24
74370;BME280;62805;44.644;10.942;2023-04-03T05:21:49;100869.44;;;8.16;81.96
74370;BME280;62805;44.644;10.942;2023-04-03T05:24:15;100867.50;;;8.16;82.30
74370;BME280;62805;44.644;10.942;2023-04-03T05:26:41;100874.72;;;8.12;82.20
74370;BME280;62805;44.644;10.942;2023-04-03T05:29:07;100867.19;;;8.13;82.60
74370;BME280;62805;44.644;10.942;2023-04-03T05:31:33;100868.81;;;8.09;82.67
74370;BME280;62805;44.644;10.942;2023-04-03T05:33:58;100880.00;;;8.09;82.80
74370;BME280;62805;44.644;10.942;2023-04-03T05:36:24;100883.97;;;8.13;82.57
74370;BME280;62805;44.644;10.942;2023-04-03T05:38:50;100890.22;;;8.20;82.35
74370;BME280;62805;44.644;10.942;2023-04-03T05:41:16;100887.16;;;8.00;83.46
74370;BME280;62805;44.644;10.942;2023-04-03T05:43:41;100896.41;;;8.22;83.02
74370;BME280;62805;44.644;10.942;2023-04-03T05:46:10;100896.41;;;8.22;82.91
74370;BME280;62805;44.644;10.942;2023-04-03T05:48:36;100889.78;;;8.28;82.94
74370;BME280;62805;44.644;10.942;2023-04-03T05:51:02;100889.16;;;8.47;82.58
74370;BME280;62805;44.644;10.942;2023-04-03T05:53:29;100889.44;;;8.46;80.92
74370;BME280;62805;44.644;10.942;2023-04-03T05:55:56;100887.50;;;8.46;80.76
74370;BME280;62805;44.644;10.942;2023-04-03T05:58:21;100888.97;;;8.54;81.10
74370;BME280;62805;44.644;10.942;2023-04-03T06:00:47;100884.00;;;8.61;80.12
74370;BME280;62805;44.644;10.942;2023-04-03T06:03:12;100900.44;;;8.79;79.63
74370;BME280;62805;44.644;10.942;2023-04-03T06:05:38;100887.06;;;8.86;78.61
74370;BME280;62805;44.644;10.942;2023-04-03T06:08:03;100890.44;;;8.88;79.08
74370;BME280;62805;44.644;10.942;2023-04-03T06:10:29;100895.09;;;9.04;78.78
74370;BME280;62805;44.644;10.942;2023-04-03T06:12:54;100886.63;;;8.99;78.17
74370;BME280;62805;44.644;10.942;2023-04-03T06:15:19;100895.56;;;8.96;79.03
74370;BME280;62805;44.644;10.942;2023-04-03T06:17:45;100890.09;;;9.11;78.63
74370;BME280;62805;44.644;10.942;2023-04-03T06:20:11;100896.31;;;9.18;78.30
74370;BME280;62805;44.644;10.942;2023-04-03T06:22:37;100903.06;;;9.22;79.11
74370;BME280;62805;44.644;10.942;2023-04-03T06:25:02;100908.50;;;9.34;79.12
74370;BME280;62805;44.644;10.942;2023-04-03T06:27:28;100908.28;;;9.40;78.45
74370;BME280;62805;44.644;10.942;2023-04-03T06:29:53;100903.84;;;9.49;78.69
74370;BME280;62805;44.644;10.942;2023-04-03T06:32:19;100907.28;;;9.56;79.04
74370;BME280;62805;44.644;10.942;2023-04-03T06:34:45;100911.69;;;9.47;78.18
74370;BME280;62805;44.644;10.942;2023-04-03T06:37:18;100914.47;;;9.42;78.63
74370;BME280;62805;44.644;10.942;2023-04-03T06:39:44;100917.22;;;9.37;78.44
74370;BME280;62805;44.644;10.942;2023-04-03T06:42:10;100927.47;;;9.53;78.36
74370;BME280;62805;44.644;10.942;2023-04-03T06:44:36;100916.22;;;9.53;78.53
74370;BME280;62805;44.644;10.942;2023-04-03T06:47:02;100920.13;;;9.52;79.18
74370;BME280;62805;44.644;10.942;2023-04-03T06:49:27;100930.91;;;9.65;78.81
74370;BME280;62805;44.644;10.942;2023-04-03T06:51:54;100929.13;;;9.54;78.66
74370;BME280;62805;44.644;10.942;2023-04-03T06:54:19;100934.34;;;9.77;79.46
74370;BME280;62805;44.644;10.942;2023-04-03T06:56:45;100922.03;;;9.83;78.82
74370;BME280;62805;44.644;10.942;2023-04-03T06:59:12;100933.28;;;9.88;79.12
74370;BME280;62805;44.644;10.942;2023-04-03T07:01:40;100942.88;;;9.97;79.15
74370;BME280;62805;44.644;10.942;2023-04-03T07:04:07;100929.44;;;10.04;79.56
74370;BME280;62805;44.644;10.942;2023-04-03T07:06:32;100927.78;;;10.03;79.55
74370;BME280;62805;44.644;10.942;2023-04-03T07:08:59;100931.13;;;10.00;80.01
74370;BME280;62805;44.644;10.942;2023-04-03T07:11:25;100930.63;;;10.08;80.33
74370;BME280;62805;44.644;10.942;2023-04-03T07:13:51;100936.28;;;10.13;79.71
74370;BME280;62805;44.644;10.942;2023-04-03T07:16:17;100935.81;;;10.32;80.13
74370;BME280;62805;44.644;10.942;2023-04-03T07:18:43;100935.81;;;10.32;79.74
74370;BME280;62805;44.644;10.942;2023-04-03T07:21:09;100933.03;;;10.37;80.65
74370;BME280;62805;44.644;10.942;2023-04-03T07:23:35;100941.16;;;10.33;80.55
74370;BME280;62805;44.644;10.942;2023-04-03T07:26:00;100938.06;;;10.40;80.05
74370;BME280;62805;44.644;10.942;2023-04-03T07:28:26;100948.28;;;10.61;79.85
74370;BME280;62805;44.644;10.942;2023-04-03T07:31:03;100943.13;;;10.43;80.21
74370;BME280;62805;44.644;10.942;2023-04-03T07:33:30;100946.91;;;10.63;79.62
74370;BME280;62805;44.644;10.942;2023-04-03T07:35:56;100946.13;;;10.98;79.05
74370;BME280;62805;44.644;10.942;2023-04-03T07:38:21;100959.34;;;11.02;78.32
74370;BME280;62805;44.644;10.942;2023-04-03T07:40:48;100959.34;;;11.02;77.57
74370;BME280;62805;44.644;10.942;2023-04-03T07:43:15;100958.81;;;11.05;77.77
74370;BME280;62805;44.644;10.942;2023-04-03T07:45:41;100959.63;;;11.01;77.82
74370;BME280;62805;44.644;10.942;2023-04-03T07:48:07;100954.00;;;11.06;78.56
74370;BME280;62805;44.644;10.942;2023-04-03T07:50:32;100964.72;;;11.09;78.13
74370;BME280;62805;44.644;10.942;2023-04-03T07:52:58;100965.81;;;10.98;79.10
74370;BME280;62805;44.644;10.942;2023-04-03T07:55:24;100967.50;;;10.94;78.86
74370;BME280;62805;44.644;10.942;2023-04-03T07:57:50;100964.16;;;11.02;78.61
74370;BME280;62805;44.644;10.942;2023-04-03T08:00:16;100961.91;;;11.14;79.19
74370;BME280;62805;44.644;10.942;2023-04-03T08:02:43;100958.81;;;11.05;78.02
74370;BME280;62805;44.644;10.942;2023-04-03T08:05:09;100944.47;;;11.07;79.03
74370;BME280;62805;44.644;10.942;2023-04-03T08:07:39;100956.28;;;11.14;78.76
74370;BME280;62805;44.644;10.942;2023-04-03T08:10:04;100957.38;;;11.03;79.03
74370;BME280;62805;44.644;10.942;2023-04-03T08:12:30;100961.28;;;10.87;79.75
74370;BME280;62805;44.644;10.942;2023-04-03T08:14:57;100965.25;;;11.06;79.60
74370;BME280;62805;44.644;10.942;2023-04-03T08:17:22;100961.63;;;11.31;79.58
74370;BME280;62805;44.644;10.942;2023-04-03T08:19:48;100959.66;;;11.51;78.94
74370;BME280;62805;44.644;10.942;2023-04-03T08:22:13;100967.03;;;11.67;78.06
74370;BME280;62805;44.644;10.942;2023-04-03T08:24:38;100958.00;;;11.45;77.72
74370;BME280;62805;44.644;10.942;2023-04-03T08:27:04;100960.22;;;11.53;77.74
74370;BME280;62805;44.644;10.942;2023-04-03T08:29:29;100960.25;;;11.63;77.80
74370;BME280;62805;44.644;10.942;2023-04-03T08:31:55;100963.31;;;11.62;77.62
74370;BME280;62805;44.644;10.942;2023-04-03T08:34:20;100959.13;;;11.69;77.99
74370;BME280;62805;44.644;10.942;2023-04-03T08:36:46;100963.88;;;11.99;77.04
74370;BME280;62805;44.644;10.942;2023-04-03T08:39:12;100964.75;;;11.99;76.73
74370;BME280;62805;44.644;10.942;2023-04-03T08:41:42;100959.38;;;12.08;77.18
74370;BME280;62805;44.644;10.942;2023-04-03T08:49:43;100962.09;;;12.38;76.85
74370;BME280;62805;44.644;10.942;2023-04-03T08:52:36;100961.19;;;12.58;76.08
74370;BME280;62805;44.644;10.942;2023-04-03T08:58:06;100956.47;;;12.92;74.51
74370;BME280;62805;44.644;10.942;2023-04-03T09:00:59;100953.72;;;13.30;73.73
74370;BME280;62805;44.644;10.942;2023-04-03T09:03:23;100956.59;;;13.59;72.78
74370;BME280;62805;44.644;10.942;2023-04-03T09:06:05;100956.66;;;13.49;71.36
74370;BME280;62805;44.644;10.942;2023-04-03T09:14:36;100965.81;;;13.98;70.77
74370;BME280;62805;44.644;10.942;2023-04-03T09:20:02;100968.19;;;14.43;69.56
74370;BME280;62805;44.644;10.942;2023-04-03T09:22:32;100959.75;;;14.62;68.93
74370;BME280;62805;44.644;10.942;2023-04-03T09:24:59;100960.47;;;14.73;68.00
74370;BME280;62805;44.644;10.942;2023-04-03T09:27:26;100952.78;;;14.78;67.21
74370;BME280;62805;44.644;10.942;2023-04-03T09:29:54;100958.28;;;14.88;67.38
74370;BME280;62805;44.644;10.942;2023-04-03T09:32:32;100955.59;;;14.97;67.18
74370;BME280;62805;44.644;10.942;2023-04-03T09:35:04;100963.31;;;14.91;66.58
74370;BME280;62805;44.644;10.942;2023-04-03T09:40:04;100943.06;;;15.21;64.99
74370;BME280;62805;44.644;10.942;2023-04-03T09:42:31;100955.84;;;15.19;65.89
74370;BME280;62805;44.644;10.942;2023-04-03T09:45:03;100941.84;;;15.09;66.58
74370;BME280;62805;44.644;10.942;2023-04-03T09:47:29;100947.34;;;15.19;66.08
74370;BME280;62805;44.644;10.942;2023-04-03T09:52:40;100952.00;;;14.73;65.95
74370;BME280;62805;44.644;10.942;2023-04-03T09:55:08;100945.72;;;14.52;66.67
74370;BME280;62805;44.644;10.942;2023-04-03T09:57:33;100940.88;;;14.05;68.72
74370;BME280;62805;44.644;10.942;2023-04-03T10:00:01;100953.81;;;14.11;68.73
74370;BME280;62805;44.644;10.942;2023-04-03T10:02:40;100933.66;;;14.46;67.77
74370;BME280;62805;44.644;10.942;2023-04-03T10:07:51;100927.09;;;14.70;67.49
74370;BME280;62805;44.644;10.942;2023-04-03T10:10:21;100924.84;;;15.09;66.29
74370;BME280;62805;44.644;10.942;2023-04-03T10:13:03;100926.63;;;15.42;65.53
74370;BME280;62805;44.644;10.942;2023-04-03T10:15:36;100926.34;;;15.57;64.62
74370;BME280;62805;44.644;10.942;2023-04-03T10:18:06;100928.06;;;15.58;64.76
74370;BME280;62805;44.644;10.942;2023-04-03T10:20:40;100927.91;;;15.31;64.44
74370;BME280;62805;44.644;10.942;2023-04-03T10:25:43;100924.56;;;15.29;64.46
74370;BME280;62805;44.644;10.942;2023-04-03T10:28:22;100915.66;;;15.54;63.66
74370;BME280;62805;44.644;10.942;2023-04-03T10:30:58;100925.13;;;15.63;62.64
74370;BME280;62805;44.644;10.942;2023-04-03T10:33:42;100920.78;;;15.33;60.68
74370;BME280;62805;44.644;10.942;2023-04-03T10:36:35;100911.69;;;15.55;60.05
74370;BME280;62805;44.644;10.942;2023-04-03T10:47:16;100907.13;;;15.22;62.04
74370;BME280;62805;44.644;10.942;2023-04-03T10:49:53;100908.53;;;15.38;61.82
74370;BME280;62805;44.644;10.942;2023-04-03T10:52:43;100899.94;;;15.61;60.94
74370;BME280;62805;44.644;10.942;2023-04-03T10:57:40;100893.44;;;15.61;60.22
74370;BME280;62805;44.644;10.942;2023-04-03T11:00:37;100897.88;;;15.67;59.68
74370;BME280;62805;44.644;10.942;2023-04-03T11:03:16;100913.69;;;15.68;60.63
74370;BME280;62805;44.644;10.942;2023-04-03T11:05:52;100900.28;;;15.41;61.58
74370;BME280;62805;44.644;10.942;2023-04-03T11:11:14;100899.91;;;15.11;62.22
74370;BME280;62805;44.644;10.942;2023-04-03T11:14:03;100885.31;;;15.04;62.86
74370;BME280;62805;44.644;10.942;2023-04-03T11:16:34;100888.06;;;15.09;63.19
74370;BME280;62805;44.644;10.942;2023-04-03T11:19:14;100892.16;;;15.35;60.60
74370;BME280;62805;44.644;10.942;2023-04-03T11:21:54;100889.53;;;15.38;57.38
74370;BME280;62805;44.644;10.942;2023-04-03T11:24:25;100887.50;;;15.44;57.47
74370;BME280;62805;44.644;10.942;2023-04-03T11:26:54;100886.34;;;15.77;56.94
74370;BME280;62805;44.644;10.942;2023-04-03T11:29:25;100893.50;;;15.88;57.61
74370;BME280;62805;44.644;10.942;2023-04-03T11:32:06;100894.97;;;15.99;57.16
74370;BME280;62805;44.644;10.942;2023-04-03T11:34:49;100883.19;;;15.92;56.90
74370;BME280;62805;44.644;10.942;2023-04-03T11:37:24;100885.94;;;15.97;56.45
74370;BME280;62805;44.644;10.942;2023-04-03T11:39:59;100880.69;;;16.04;54.47
74370;BME280;62805;44.644;10.942;2023-04-03T11:42:38;100882.16;;;15.88;55.29
74370;BME280;62805;44.644;10.942;2023-04-03T11:47:51;100869.69;;;15.57;56.25
74370;BME280;62805;44.644;10.942;2023-04-03T11:50:45;100879.03;;;15.57;56.41
74370;BME280;62805;44.644;10.942;2023-04-03T11:55:54;100852.44;;;15.40;56.07
74370;BME280;62805;44.644;10.942;2023-04-03T11:58:33;100861.63;;;15.32;57.53
74370;BME280;62805;44.644;10.942;2023-04-03T12:01:07;100852.47;;;15.53;56.49
74370;BME280;62805;44.644;10.942;2023-04-03T12:03:57;100839.59;;;15.61;55.76
74370;BME280;62805;44.644;10.942;2023-04-03T12:08:57;100855.06;;;15.82;54.78
74370;BME280;62805;44.644;10.942;2023-04-03T12:11:30;100856.84;;;15.78;54.83
74370;BME280;62805;44.644;10.942;2023-04-03T12:16:33;100855.91;;;15.83;55.42
74370;BME280;62805;44.644;10.942;2023-04-03T12:19:42;100841.25;;;16.21;55.56
74370;BME280;62805;44.644;10.942;2023-04-03T12:22:12;100841.00;;;16.31;55.45
74370;BME280;62805;44.644;10.942;2023-04-03T12:24:41;100840.16;;;16.31;53.55
74370;BME280;62805;44.644;10.942;2023-04-03T12:27:27;100835.97;;;16.55;52.05
74370;BME280;62805;44.644;10.942;2023-04-03T12:32:41;100843.00;;;16.94;49.10
74370;BME280;62805;44.644;10.942;2023-04-03T12:44:26;100834.59;;;17.46;48.36
74370;BME280;62805;44.644;10.942;2023-04-03T12:47:00;100834.97;;;17.31;47.46
74370;BME280;62805;44.644;10.942;2023-04-03T12:51:55;100825.47;;;17.14;47.92
74370;BME280;62805;44.644;10.942;2023-04-03T12:56:49;100830.06;;;17.01;47.18
74370;BME280;62805;44.644;10.942;2023-04-03T12:59:22;100822.06;;;17.25;49.97
74370;BME280;62805;44.644;10.942;2023-04-03T13:01:59;100818.75;;;17.10;46.82
74370;BME280;62805;44.644;10.942;2023-04-03T13:04:26;100824.75;;;17.74;46.07
74370;BME280;62805;44.644;10.942;2023-04-03T13:06:52;100821.47;;;17.59;45.71
74370;BME280;62805;44.644;10.942;2023-04-03T13:09:27;100818.59;;;17.81;44.09
74370;BME280;62805;44.644;10.942;2023-04-03T13:12:13;100820.78;;;17.84;43.80
74370;BME280;62805;44.644;10.942;2023-04-03T13:14:39;100820.44;;;17.55;44.87
74370;BME280;62805;44.644;10.942;2023-04-03T13:17:15;100818.31;;;17.60;43.89
74370;BME280;62805;44.644;10.942;2023-04-03T13:19:43;100813.75;;;17.07;44.83
74370;BME280;62805;44.644;10.942;2023-04-03T13:24:46;100810.88;;;16.49;38.71
74370;BME280;62805;44.644;10.942;2023-04-03T13:27:14;100803.84;;;17.04;38.27
74370;BME280;62805;44.644;10.942;2023-04-03T13:29:40;100804.25;;;17.86;38.15
74370;BME280;62805;44.644;10.942;2023-04-03T13:32:06;100797.66;;;17.68;38.21
74370;BME280;62805;44.644;10.942;2023-04-03T13:34:38;100795.16;;;17.23;39.32
74370;BME280;62805;44.644;10.942;2023-04-03T13:37:05;100791.75;;;19.29;36.84
74370;BME280;62805;44.644;10.942;2023-04-03T13:39:37;100790.19;;;20.49;34.22
74370;BME280;62805;44.644;10.942;2023-04-03T13:42:22;100787.72;;;21.30;29.95
74370;BME280;62805;44.644;10.942;2023-04-03T13:44:49;100785.56;;;21.72;28.47
74370;BME280;62805;44.644;10.942;2023-04-03T13:47:38;100783.00;;;21.91;27.24
74370;BME280;62805;44.644;10.942;2023-04-03T13:50:19;100778.13;;;21.91;27.33
74370;BME280;62805;44.644;10.942;2023-04-03T13:52:54;100775.91;;;20.49;29.45
74370;BME280;62805;44.644;10.942;2023-04-03T13:55:24;100779.78;;;21.80;29.21
74370;BME280;62805;44.644;10.942;2023-04-03T13:58:02;100767.69;;;21.30;29.96
74370;BME280;62805;44.644;10.942;2023-04-03T14:02:55;100759.06;;;20.56;32.03
74370;BME280;62805;44.644;10.942;2023-04-03T14:05:23;100761.72;;;20.03;32.82
74370;BME280;62805;44.644;10.942;2023-04-03T14:07:50;100762.81;;;20.48;32.13
74370;BME280;62805;44.644;10.942;2023-04-03T14:10:16;100764.47;;;21.32;30.60
74370;BME280;62805;44.644;10.942;2023-04-03T14:12:42;100761.09;;;22.31;29.31
74370;BME280;62805;44.644;10.942;2023-04-03T14:15:18;100768.38;;;22.41;28.20
74370;BME280;62805;44.644;10.942;2023-04-03T14:17:45;100763.63;;;22.96;27.36